Aeroporto :
LOGIN :

Iscrizione | Disclaimer

   EN    FR    IT 

 










Sommario :    VFR   VFR Marginale   IFR   IFR Intensivo   IFR Molto Intensivo
Visibilità : 
Base nubi : 
>= 8 km
>= 3000ft
5 / 8 km
1000 / 3000 ft
1500m / 5 km
500 / 1000 ft
800 / 1500m
200 / 500 ft
< 800m
< 200 ft
Simboli :   Temporali  Nebbia  Neve Forte  Precipitazioni Forti  Vento > 20 kt
SIGMETs :   Varie  Temporali  Ghiacco  Turbolenza  Onda orograficha  Ceneri Vulcaniche






- Altitudine del aeroporto : 485 ft
- Codice IATA : QSA


LELL - Sabadell

ULTIMO METAR :
  • 012300Z AUTO 35003KT 250V050 9999 BKN020 11/06 Q1014

METARs OBSOLETI :
  • 012230Z AUTO 35003KT 310V080 9999 SCT018 SCT045 11/07 Q1014
  • 012200Z AUTO 35003KT 310V050 9999 BKN015 BKN022 BKN031 11/08 Q1014
  • 012130Z AUTO 31003KT 290V350 9999 OVC015 10/08 Q1014
  • 012100Z AUTO 18003KT 150V210 9999 BKN015 BKN023 10/07 Q1014
  • 012030Z AUTO 20002KT 9999 BKN014 BKN019 10/07 Q1014

TAF AMD TAF LELL
Valido dal 01 a 19 ore il 02 a 15 ore UTC


011945Z 0119/0215 VRB03KT 9999 SCT015 TX13/0213Z TN04/0206Z
PROB40
TEMPO 0119/0204 3000 BR BKN010
TEMPO 0208/0215 28010KT



MetMap, La meteo Aeronautica in un colpo d'occhio ! - Copyright ORBIFLY Dicembre 2007 - Disclaimer

ORBIFLY MET'MAP TEAM :

Programmazione e sviluppo : Alexandra Zaïnal
Concezione : Baudouin d'Aumeries
Aiuto per la programmazione : Marc-Olivier Méhu
Supporto tecnico e logistico : Manuel Goepfert
Aiuto per la traduzione : Arnaldo La Scala

Contatto : metmap@orbifly.com




FONTI E CREDITI :

   NOAA